0.000 kWh

EHAM AMSTERDAM/SCHIPHOL NLD -3 m.
METAR EHAM 150725Z 24022G37KT 220V280 9999 FEW030 08/03 Q0992 NOSIG

EHAM AMSTERDAM/SCHIPHOL NLD -3 m.
TAF EHAM 150516Z 1506/1612 24022G35KT 9999 FEW025
TEMPO 1506/1508 25025G41KT -SHRA FEW025CB
BECMG 1509/1512 23020G30KT
PROB40 TEMPO 1513/1521 23022G35KT 4500 SHRA TSRAGS SCT015
SCT020CB
BECMG 1519/1522 20013KT